sensor_id;sensor_type;location;lat;lon;timestamp;P1;durP1;ratioP1;P2;durP2;ratioP2
52035;SDS011;38046;49.448;32.074;2023-05-19T00:01:58;14.02;;;11.85;;
52035;SDS011;38046;49.448;32.074;2023-05-19T00:04:24;15.32;;;11.35;;
52035;SDS011;38046;49.448;32.074;2023-05-19T00:06:51;11.68;;;10.48;;
52035;SDS011;38046;49.448;32.074;2023-05-19T00:09:18;13.75;;;11.48;;
52035;SDS011;38046;49.448;32.074;2023-05-19T00:11:44;15.13;;;11.80;;
52035;SDS011;38046;49.448;32.074;2023-05-19T00:14:10;13.38;;;11.23;;
52035;SDS011;38046;49.448;32.074;2023-05-19T00:16:36;13.00;;;11.60;;
52035;SDS011;38046;49.448;32.074;2023-05-19T00:19:03;14.98;;;11.90;;
52035;SDS011;38046;49.448;32.074;2023-05-19T00:21:30;12.82;;;11.40;;
52035;SDS011;38046;49.448;32.074;2023-05-19T00:23:56;12.85;;;11.13;;
52035;SDS011;38046;49.448;32.074;2023-05-19T00:26:23;14.43;;;12.02;;
52035;SDS011;38046;49.448;32.074;2023-05-19T00:28:49;13.20;;;11.52;;
52035;SDS011;38046;49.448;32.074;2023-05-19T00:31:15;13.48;;;12.00;;
52035;SDS011;38046;49.448;32.074;2023-05-19T00:33:41;12.40;;;11.05;;
52035;SDS011;38046;49.448;32.074;2023-05-19T00:36:07;13.13;;;11.02;;
52035;SDS011;38046;49.448;32.074;2023-05-19T00:38:33;14.10;;;11.73;;
52035;SDS011;38046;49.448;32.074;2023-05-19T00:41:00;15.63;;;11.70;;
52035;SDS011;38046;49.448;32.074;2023-05-19T00:43:27;14.05;;;11.60;;
52035;SDS011;38046;49.448;32.074;2023-05-19T00:45:54;12.75;;;11.45;;
52035;SDS011;38046;49.448;32.074;2023-05-19T00:48:20;13.98;;;11.55;;
52035;SDS011;38046;49.448;32.074;2023-05-19T00:50:46;13.82;;;12.30;;
52035;SDS011;38046;49.448;32.074;2023-05-19T00:53:13;14.15;;;11.32;;
52035;SDS011;38046;49.448;32.074;2023-05-19T00:55:41;13.75;;;11.73;;
52035;SDS011;38046;49.448;32.074;2023-05-19T00:58:07;13.68;;;12.20;;
52035;SDS011;38046;49.448;32.074;2023-05-19T01:00:34;15.40;;;11.95;;
52035;SDS011;38046;49.448;32.074;2023-05-19T01:03:01;13.98;;;11.25;;
52035;SDS011;38046;49.448;32.074;2023-05-19T01:05:27;14.68;;;11.93;;
52035;SDS011;38046;49.448;32.074;2023-05-19T01:07:52;14.20;;;11.82;;
52035;SDS011;38046;49.448;32.074;2023-05-19T01:10:20;14.63;;;12.82;;
52035;SDS011;38046;49.448;32.074;2023-05-19T01:12:46;14.07;;;11.93;;
52035;SDS011;38046;49.448;32.074;2023-05-19T01:15:12;15.45;;;12.55;;
52035;SDS011;38046;49.448;32.074;2023-05-19T01:17:40;16.20;;;12.18;;
52035;SDS011;38046;49.448;32.074;2023-05-19T01:20:23;13.50;;;12.07;;
52035;SDS011;38046;49.448;32.074;2023-05-19T01:23:10;15.68;;;12.60;;
52035;SDS011;38046;49.448;32.074;2023-05-19T01:26:21;13.82;;;12.23;;
52035;SDS011;38046;49.448;32.074;2023-05-19T01:31:32;13.77;;;11.80;;
52035;SDS011;38046;49.448;32.074;2023-05-19T01:34:00;17.10;;;12.85;;
52035;SDS011;38046;49.448;32.074;2023-05-19T01:36:28;15.55;;;12.07;;
52035;SDS011;38046;49.448;32.074;2023-05-19T01:38:57;14.63;;;12.73;;
52035;SDS011;38046;49.448;32.074;2023-05-19T01:41:24;14.63;;;12.05;;
52035;SDS011;38046;49.448;32.074;2023-05-19T01:43:52;14.07;;;12.00;;
52035;SDS011;38046;49.448;32.074;2023-05-19T01:46:18;13.68;;;11.93;;
52035;SDS011;38046;49.448;32.074;2023-05-19T01:48:45;14.10;;;12.60;;
52035;SDS011;38046;49.448;32.074;2023-05-19T01:51:12;16.73;;;12.95;;
52035;SDS011;38046;49.448;32.074;2023-05-19T01:53:38;15.20;;;12.70;;
52035;SDS011;38046;49.448;32.074;2023-05-19T01:56:03;15.43;;;12.43;;
52035;SDS011;38046;49.448;32.074;2023-05-19T01:58:52;13.75;;;11.48;;
52035;SDS011;38046;49.448;32.074;2023-05-19T02:09:56;12.75;;;11.45;;
52035;SDS011;38046;49.448;32.074;2023-05-19T02:15:10;13.25;;;11.50;;
52035;SDS011;38046;49.448;32.074;2023-05-19T02:17:45;13.40;;;11.68;;
52035;SDS011;38046;49.448;32.074;2023-05-19T02:20:15;13.13;;;10.73;;
52035;SDS011;38046;49.448;32.074;2023-05-19T02:22:41;15.75;;;12.68;;
52035;SDS011;38046;49.448;32.074;2023-05-19T02:25:08;17.58;;;13.05;;
52035;SDS011;38046;49.448;32.074;2023-05-19T02:27:34;13.65;;;12.18;;
52035;SDS011;38046;49.448;32.074;2023-05-19T02:30:05;15.48;;;12.30;;
52035;SDS011;38046;49.448;32.074;2023-05-19T02:32:32;14.05;;;12.32;;
52035;SDS011;38046;49.448;32.074;2023-05-19T02:34:58;15.50;;;12.57;;
52035;SDS011;38046;49.448;32.074;2023-05-19T02:37:24;14.63;;;11.98;;
52035;SDS011;38046;49.448;32.074;2023-05-19T02:39:52;15.07;;;12.50;;
52035;SDS011;38046;49.448;32.074;2023-05-19T02:42:18;14.75;;;12.73;;
52035;SDS011;38046;49.448;32.074;2023-05-19T02:44:44;13.50;;;12.10;;
52035;SDS011;38046;49.448;32.074;2023-05-19T02:47:10;13.73;;;12.32;;
52035;SDS011;38046;49.448;32.074;2023-05-19T02:49:36;13.82;;;12.32;;
52035;SDS011;38046;49.448;32.074;2023-05-19T02:52:04;12.45;;;11.25;;
52035;SDS011;38046;49.448;32.074;2023-05-19T02:54:31;12.85;;;11.05;;
52035;SDS011;38046;49.448;32.074;2023-05-19T02:56:57;12.25;;;10.85;;
52035;SDS011;38046;49.448;32.074;2023-05-19T02:59:24;11.73;;;10.20;;
52035;SDS011;38046;49.448;32.074;2023-05-19T03:01:53;12.40;;;11.15;;
52035;SDS011;38046;49.448;32.074;2023-05-19T03:04:20;14.35;;;11.80;;
52035;SDS011;38046;49.448;32.074;2023-05-19T03:06:46;13.10;;;10.98;;
52035;SDS011;38046;49.448;32.074;2023-05-19T03:09:12;12.50;;;10.60;;
52035;SDS011;38046;49.448;32.074;2023-05-19T03:11:38;13.88;;;10.77;;
52035;SDS011;38046;49.448;32.074;2023-05-19T03:14:04;11.90;;;10.70;;
52035;SDS011;38046;49.448;32.074;2023-05-19T03:16:29;13.07;;;11.15;;
52035;SDS011;38046;49.448;32.074;2023-05-19T03:18:56;11.88;;;10.68;;
52035;SDS011;38046;49.448;32.074;2023-05-19T03:21:22;12.75;;;10.80;;
52035;SDS011;38046;49.448;32.074;2023-05-19T03:23:47;12.32;;;10.93;;
52035;SDS011;38046;49.448;32.074;2023-05-19T03:26:13;13.80;;;12.30;;
52035;SDS011;38046;49.448;32.074;2023-05-19T03:28:39;14.98;;;12.45;;
52035;SDS011;38046;49.448;32.074;2023-05-19T03:31:04;14.50;;;12.23;;
52035;SDS011;38046;49.448;32.074;2023-05-19T03:33:30;14.80;;;13.07;;
52035;SDS011;38046;49.448;32.074;2023-05-19T03:35:56;12.38;;;11.07;;
52035;SDS011;38046;49.448;32.074;2023-05-19T03:38:21;12.07;;;10.77;;
52035;SDS011;38046;49.448;32.074;2023-05-19T03:40:47;11.95;;;10.65;;
52035;SDS011;38046;49.448;32.074;2023-05-19T03:43:13;12.10;;;10.20;;
52035;SDS011;38046;49.448;32.074;2023-05-19T03:45:40;13.50;;;10.40;;
52035;SDS011;38046;49.448;32.074;2023-05-19T03:48:06;14.40;;;10.57;;
52035;SDS011;38046;49.448;32.074;2023-05-19T03:50:31;12.75;;;10.25;;
52035;SDS011;38046;49.448;32.074;2023-05-19T03:52:58;11.68;;;9.77;;
52035;SDS011;38046;49.448;32.074;2023-05-19T03:55:24;11.52;;;10.32;;
52035;SDS011;38046;49.448;32.074;2023-05-19T03:57:53;14.35;;;9.63;;
52035;SDS011;38046;49.448;32.074;2023-05-19T04:00:20;13.18;;;10.35;;
52035;SDS011;38046;49.448;32.074;2023-05-19T04:02:46;11.35;;;10.10;;
52035;SDS011;38046;49.448;32.074;2023-05-19T04:05:11;11.40;;;10.20;;
52035;SDS011;38046;49.448;32.074;2023-05-19T04:07:37;10.68;;;9.40;;
52035;SDS011;38046;49.448;32.074;2023-05-19T04:10:03;10.35;;;8.82;;
52035;SDS011;38046;49.448;32.074;2023-05-19T04:12:29;10.02;;;8.77;;
52035;SDS011;38046;49.448;32.074;2023-05-19T04:14:55;10.52;;;9.40;;
52035;SDS011;38046;49.448;32.074;2023-05-19T04:17:21;10.43;;;8.13;;
52035;SDS011;38046;49.448;32.074;2023-05-19T04:19:50;11.02;;;8.98;;
52035;SDS011;38046;49.448;32.074;2023-05-19T04:22:16;9.60;;;8.63;;
52035;SDS011;38046;49.448;32.074;2023-05-19T04:24:41;10.00;;;8.88;;
52035;SDS011;38046;49.448;32.074;2023-05-19T04:27:07;12.32;;;8.93;;
52035;SDS011;38046;49.448;32.074;2023-05-19T04:29:36;10.68;;;8.75;;
52035;SDS011;38046;49.448;32.074;2023-05-19T04:32:03;11.23;;;9.10;;
52035;SDS011;38046;49.448;32.074;2023-05-19T04:34:32;9.82;;;8.65;;
52035;SDS011;38046;49.448;32.074;2023-05-19T04:36:58;9.27;;;8.27;;
52035;SDS011;38046;49.448;32.074;2023-05-19T04:39:25;10.25;;;8.68;;
52035;SDS011;38046;49.448;32.074;2023-05-19T04:41:50;9.73;;;8.23;;
52035;SDS011;38046;49.448;32.074;2023-05-19T04:44:18;10.30;;;8.35;;
52035;SDS011;38046;49.448;32.074;2023-05-19T04:46:44;10.10;;;8.77;;
52035;SDS011;38046;49.448;32.074;2023-05-19T04:49:10;10.18;;;9.02;;
52035;SDS011;38046;49.448;32.074;2023-05-19T04:51:38;11.48;;;8.98;;
52035;SDS011;38046;49.448;32.074;2023-05-19T04:54:06;11.02;;;8.55;;
52035;SDS011;38046;49.448;32.074;2023-05-19T04:56:32;9.38;;;8.20;;
52035;SDS011;38046;49.448;32.074;2023-05-19T04:58:57;9.38;;;7.70;;
52035;SDS011;38046;49.448;32.074;2023-05-19T05:01:23;8.98;;;8.07;;
52035;SDS011;38046;49.448;32.074;2023-05-19T05:03:49;8.65;;;7.75;;
52035;SDS011;38046;49.448;32.074;2023-05-19T05:06:19;9.47;;;8.40;;
52035;SDS011;38046;49.448;32.074;2023-05-19T05:08:47;10.88;;;8.32;;
52035;SDS011;38046;49.448;32.074;2023-05-19T05:11:13;9.90;;;8.02;;
52035;SDS011;38046;49.448;32.074;2023-05-19T05:13:39;9.30;;;8.40;;
52035;SDS011;38046;49.448;32.074;2023-05-19T05:16:05;10.25;;;8.38;;
52035;SDS011;38046;49.448;32.074;2023-05-19T05:18:32;9.05;;;8.15;;
52035;SDS011;38046;49.448;32.074;2023-05-19T05:20:59;9.40;;;7.95;;
52035;SDS011;38046;49.448;32.074;2023-05-19T05:23:25;9.80;;;7.88;;
52035;SDS011;38046;49.448;32.074;2023-05-19T05:25:51;10.30;;;8.23;;
52035;SDS011;38046;49.448;32.074;2023-05-19T05:28:17;9.45;;;8.02;;
52035;SDS011;38046;49.448;32.074;2023-05-19T05:30:43;10.13;;;8.13;;
52035;SDS011;38046;49.448;32.074;2023-05-19T05:33:09;10.55;;;8.20;;
52035;SDS011;38046;49.448;32.074;2023-05-19T05:35:35;10.15;;;8.45;;
52035;SDS011;38046;49.448;32.074;2023-05-19T05:38:01;10.57;;;9.10;;
52035;SDS011;38046;49.448;32.074;2023-05-19T05:40:27;10.93;;;9.05;;
52035;SDS011;38046;49.448;32.074;2023-05-19T05:42:52;10.20;;;9.18;;
52035;SDS011;38046;49.448;32.074;2023-05-19T05:45:23;10.73;;;9.48;;
52035;SDS011;38046;49.448;32.074;2023-05-19T05:47:49;12.88;;;9.18;;
52035;SDS011;38046;49.448;32.074;2023-05-19T05:50:16;10.80;;;9.43;;
52035;SDS011;38046;49.448;32.074;2023-05-19T05:52:44;10.43;;;9.32;;
52035;SDS011;38046;49.448;32.074;2023-05-19T05:55:11;10.50;;;8.52;;
52035;SDS011;38046;49.448;32.074;2023-05-19T05:57:37;10.80;;;8.30;;
52035;SDS011;38046;49.448;32.074;2023-05-19T06:00:06;10.82;;;9.68;;
52035;SDS011;38046;49.448;32.074;2023-05-19T06:02:40;10.73;;;9.50;;
52035;SDS011;38046;49.448;32.074;2023-05-19T06:05:13;10.52;;;9.43;;
52035;SDS011;38046;49.448;32.074;2023-05-19T06:07:39;12.57;;;9.93;;
52035;SDS011;38046;49.448;32.074;2023-05-19T06:10:05;10.32;;;8.80;;
52035;SDS011;38046;49.448;32.074;2023-05-19T06:12:31;10.73;;;9.63;;
52035;SDS011;38046;49.448;32.074;2023-05-19T06:14:57;10.27;;;9.27;;
52035;SDS011;38046;49.448;32.074;2023-05-19T06:17:23;10.27;;;9.27;;
52035;SDS011;38046;49.448;32.074;2023-05-19T06:19:49;11.57;;;9.38;;
52035;SDS011;38046;49.448;32.074;2023-05-19T06:22:15;10.85;;;9.30;;
52035;SDS011;38046;49.448;32.074;2023-05-19T06:24:40;12.02;;;10.40;;
52035;SDS011;38046;49.448;32.074;2023-05-19T06:27:06;11.38;;;9.50;;
52035;SDS011;38046;49.448;32.074;2023-05-19T06:29:32;10.07;;;8.93;;
52035;SDS011;38046;49.448;32.074;2023-05-19T06:31:57;11.27;;;10.02;;
52035;SDS011;38046;49.448;32.074;2023-05-19T06:34:23;10.10;;;9.10;;
52035;SDS011;38046;49.448;32.074;2023-05-19T06:36:49;12.02;;;9.05;;
52035;SDS011;38046;49.448;32.074;2023-05-19T06:39:14;10.52;;;8.82;;
52035;SDS011;38046;49.448;32.074;2023-05-19T06:41:40;11.82;;;9.63;;
52035;SDS011;38046;49.448;32.074;2023-05-19T06:44:06;11.57;;;10.05;;
52035;SDS011;38046;49.448;32.074;2023-05-19T06:46:33;11.80;;;9.57;;
52035;SDS011;38046;49.448;32.074;2023-05-19T06:48:58;11.43;;;8.25;;
52035;SDS011;38046;49.448;32.074;2023-05-19T06:51:24;11.25;;;9.23;;
52035;SDS011;38046;49.448;32.074;2023-05-19T06:53:50;10.02;;;9.02;;
52035;SDS011;38046;49.448;32.074;2023-05-19T06:56:15;10.30;;;8.93;;
52035;SDS011;38046;49.448;32.074;2023-05-19T06:58:42;11.27;;;9.60;;
52035;SDS011;38046;49.448;32.074;2023-05-19T07:01:09;9.63;;;8.63;;
52035;SDS011;38046;49.448;32.074;2023-05-19T07:03:34;10.55;;;9.40;;
52035;SDS011;38046;49.448;32.074;2023-05-19T07:06:00;10.52;;;9.02;;
52035;SDS011;38046;49.448;32.074;2023-05-19T07:08:26;9.75;;;8.80;;
52035;SDS011;38046;49.448;32.074;2023-05-19T07:10:52;13.40;;;9.93;;
52035;SDS011;38046;49.448;32.074;2023-05-19T07:13:19;10.50;;;9.40;;
52035;SDS011;38046;49.448;32.074;2023-05-19T07:15:44;9.55;;;8.65;;
52035;SDS011;38046;49.448;32.074;2023-05-19T07:18:12;11.93;;;8.95;;
52035;SDS011;38046;49.448;32.074;2023-05-19T07:20:38;9.82;;;8.82;;
52035;SDS011;38046;49.448;32.074;2023-05-19T07:23:04;12.20;;;9.07;;
52035;SDS011;38046;49.448;32.074;2023-05-19T07:25:30;10.65;;;8.88;;
52035;SDS011;38046;49.448;32.074;2023-05-19T07:27:56;9.43;;;8.32;;
52035;SDS011;38046;49.448;32.074;2023-05-19T07:30:21;9.80;;;8.45;;
52035;SDS011;38046;49.448;32.074;2023-05-19T07:32:47;9.60;;;8.60;;
52035;SDS011;38046;49.448;32.074;2023-05-19T07:35:13;11.93;;;8.10;;
52035;SDS011;38046;49.448;32.074;2023-05-19T07:37:38;10.27;;;8.35;;
52035;SDS011;38046;49.448;32.074;2023-05-19T07:40:04;10.38;;;8.30;;
52035;SDS011;38046;49.448;32.074;2023-05-19T07:42:31;10.52;;;8.75;;
52035;SDS011;38046;49.448;32.074;2023-05-19T07:44:57;10.98;;;8.55;;
52035;SDS011;38046;49.448;32.074;2023-05-19T07:47:23;9.25;;;8.25;;
52035;SDS011;38046;49.448;32.074;2023-05-19T07:49:48;12.88;;;8.90;;
52035;SDS011;38046;49.448;32.074;2023-05-19T07:52:14;10.50;;;8.23;;
52035;SDS011;38046;49.448;32.074;2023-05-19T07:54:42;9.60;;;8.60;;
52035;SDS011;38046;49.448;32.074;2023-05-19T07:57:08;9.43;;;8.07;;
52035;SDS011;38046;49.448;32.074;2023-05-19T07:59:33;8.80;;;7.88;;
52035;SDS011;38046;49.448;32.074;2023-05-19T08:01:59;10.38;;;8.30;;
52035;SDS011;38046;49.448;32.074;2023-05-19T08:04:25;9.95;;;8.95;;
52035;SDS011;38046;49.448;32.074;2023-05-19T08:06:50;8.75;;;7.88;;
52035;SDS011;38046;49.448;32.074;2023-05-19T08:09:16;9.98;;;8.27;;
52035;SDS011;38046;49.448;32.074;2023-05-19T08:11:42;10.18;;;8.00;;
52035;SDS011;38046;49.448;32.074;2023-05-19T08:14:08;8.68;;;7.78;;
52035;SDS011;38046;49.448;32.074;2023-05-19T08:16:34;13.07;;;8.20;;
52035;SDS011;38046;49.448;32.074;2023-05-19T08:19:00;9.40;;;7.85;;
52035;SDS011;38046;49.448;32.074;2023-05-19T08:21:28;9.10;;;8.05;;
52035;SDS011;38046;49.448;32.074;2023-05-19T08:23:53;11.65;;;7.82;;
52035;SDS011;38046;49.448;32.074;2023-05-19T08:26:19;9.18;;;8.07;;
52035;SDS011;38046;49.448;32.074;2023-05-19T08:28:45;9.10;;;8.00;;
52035;SDS011;38046;49.448;32.074;2023-05-19T08:31:11;9.50;;;8.50;;
52035;SDS011;38046;49.448;32.074;2023-05-19T08:33:36;8.30;;;7.40;;
52035;SDS011;38046;49.448;32.074;2023-05-19T08:36:02;10.77;;;7.65;;
52035;SDS011;38046;49.448;32.074;2023-05-19T08:38:28;8.07;;;6.90;;
52035;SDS011;38046;49.448;32.074;2023-05-19T08:40:53;8.43;;;7.53;;
52035;SDS011;38046;49.448;32.074;2023-05-19T08:43:19;8.48;;;7.20;;
52035;SDS011;38046;49.448;32.074;2023-05-19T08:45:45;12.68;;;7.63;;
52035;SDS011;38046;49.448;32.074;2023-05-19T08:48:12;8.60;;;7.45;;
52035;SDS011;38046;49.448;32.074;2023-05-19T08:50:39;9.27;;;8.18;;
52035;SDS011;38046;49.448;32.074;2023-05-19T08:53:12;9.70;;;7.07;;
52035;SDS011;38046;49.448;32.074;2023-05-19T08:58:38;9.60;;;7.57;;
52035;SDS011;38046;49.448;32.074;2023-05-19T09:01:14;8.38;;;7.47;;
52035;SDS011;38046;49.448;32.074;2023-05-19T09:03:44;8.30;;;7.50;;
52035;SDS011;38046;49.448;32.074;2023-05-19T09:06:10;9.65;;;8.18;;
52035;SDS011;38046;49.448;32.074;2023-05-19T09:08:39;10.55;;;8.23;;
52035;SDS011;38046;49.448;32.074;2023-05-19T09:11:06;10.40;;;7.20;;
52035;SDS011;38046;49.448;32.074;2023-05-19T09:13:33;8.25;;;7.40;;
52035;SDS011;38046;49.448;32.074;2023-05-19T09:15:58;9.98;;;7.80;;
52035;SDS011;38046;49.448;32.074;2023-05-19T09:18:26;8.80;;;7.05;;
52035;SDS011;38046;49.448;32.074;2023-05-19T09:21:01;9.38;;;7.90;;
52035;SDS011;38046;49.448;32.074;2023-05-19T09:23:30;10.50;;;7.50;;
52035;SDS011;38046;49.448;32.074;2023-05-19T09:28:26;10.25;;;7.75;;
52035;SDS011;38046;49.448;32.074;2023-05-19T09:31:06;8.20;;;7.30;;
52035;SDS011;38046;49.448;32.074;2023-05-19T09:33:33;8.98;;;7.60;;
52035;SDS011;38046;49.448;32.074;2023-05-19T09:36:01;10.43;;;7.85;;
52035;SDS011;38046;49.448;32.074;2023-05-19T09:38:29;10.25;;;8.15;;
52035;SDS011;38046;49.448;32.074;2023-05-19T09:40:55;9.20;;;8.15;;
52035;SDS011;38046;49.448;32.074;2023-05-19T09:43:22;10.00;;;8.02;;
52035;SDS011;38046;49.448;32.074;2023-05-19T09:45:48;10.68;;;8.25;;
52035;SDS011;38046;49.448;32.074;2023-05-19T09:48:20;9.85;;;7.82;;
52035;SDS011;38046;49.448;32.074;2023-05-19T09:50:45;8.45;;;7.53;;
52035;SDS011;38046;49.448;32.074;2023-05-19T09:53:13;8.90;;;7.57;;
52035;SDS011;38046;49.448;32.074;2023-05-19T09:55:39;9.13;;;7.57;;
52035;SDS011;38046;49.448;32.074;2023-05-19T09:58:05;11.40;;;7.97;;
52035;SDS011;38046;49.448;32.074;2023-05-19T10:00:31;9.18;;;7.85;;
52035;SDS011;38046;49.448;32.074;2023-05-19T10:02:58;9.18;;;7.70;;
52035;SDS011;38046;49.448;32.074;2023-05-19T10:05:25;8.85;;;7.68;;
52035;SDS011;38046;49.448;32.074;2023-05-19T10:07:52;10.13;;;8.98;;
52035;SDS011;38046;49.448;32.074;2023-05-19T10:10:19;8.30;;;7.40;;
52035;SDS011;38046;49.448;32.074;2023-05-19T10:12:46;10.73;;;8.38;;
52035;SDS011;38046;49.448;32.074;2023-05-19T10:15:13;9.23;;;8.02;;
52035;SDS011;38046;49.448;32.074;2023-05-19T10:17:42;9.15;;;7.53;;
52035;SDS011;38046;49.448;32.074;2023-05-19T10:20:10;10.35;;;7.95;;
52035;SDS011;38046;49.448;32.074;2023-05-19T10:22:38;12.02;;;7.80;;
52035;SDS011;38046;49.448;32.074;2023-05-19T10:25:04;16.58;;;9.07;;
52035;SDS011;38046;49.448;32.074;2023-05-19T10:27:31;13.65;;;10.10;;
52035;SDS011;38046;49.448;32.074;2023-05-19T10:30:03;10.85;;;8.48;;
52035;SDS011;38046;49.448;32.074;2023-05-19T10:32:36;9.95;;;8.02;;
52035;SDS011;38046;49.448;32.074;2023-05-19T10:37:55;8.68;;;6.97;;
52035;SDS011;38046;49.448;32.074;2023-05-19T10:40:52;8.63;;;7.13;;
52035;SDS011;38046;49.448;32.074;2023-05-19T10:46:26;8.18;;;7.30;;
52035;SDS011;38046;49.448;32.074;2023-05-19T10:48:52;8.73;;;6.93;;
52035;SDS011;38046;49.448;32.074;2023-05-19T10:51:18;7.60;;;6.50;;
52035;SDS011;38046;49.448;32.074;2023-05-19T10:53:44;9.73;;;6.93;;
52035;SDS011;38046;49.448;32.074;2023-05-19T10:56:29;8.13;;;6.93;;
52035;SDS011;38046;49.448;32.074;2023-05-19T10:59:00;9.30;;;6.78;;
52035;SDS011;38046;49.448;32.074;2023-05-19T11:01:35;7.80;;;7.00;;
52035;SDS011;38046;49.448;32.074;2023-05-19T11:04:08;8.68;;;6.82;;
52035;SDS011;38046;49.448;32.074;2023-05-19T11:06:39;9.50;;;6.60;;
52035;SDS011;38046;49.448;32.074;2023-05-19T11:09:10;6.85;;;6.15;;
52035;SDS011;38046;49.448;32.074;2023-05-19T11:11:42;6.50;;;5.78;;
52035;SDS011;38046;49.448;32.074;2023-05-19T11:14:13;6.93;;;6.18;;
52035;SDS011;38046;49.448;32.074;2023-05-19T11:16:45;7.85;;;6.30;;
52035;SDS011;38046;49.448;32.074;2023-05-19T11:19:30;9.27;;;6.10;;
52035;SDS011;38046;49.448;32.074;2023-05-19T11:24:42;8.15;;;6.18;;
52035;SDS011;38046;49.448;32.074;2023-05-19T11:29:52;6.80;;;5.70;;
52035;SDS011;38046;49.448;32.074;2023-05-19T11:32:20;6.07;;;5.47;;
52035;SDS011;38046;49.448;32.074;2023-05-19T11:34:47;7.97;;;6.40;;
52035;SDS011;38046;49.448;32.074;2023-05-19T11:37:14;8.38;;;6.47;;
52035;SDS011;38046;49.448;32.074;2023-05-19T11:39:40;7.93;;;6.30;;
52035;SDS011;38046;49.448;32.074;2023-05-19T11:42:09;7.70;;;6.63;;
52035;SDS011;38046;49.448;32.074;2023-05-19T11:44:35;7.65;;;6.13;;
52035;SDS011;38046;49.448;32.074;2023-05-19T11:47:02;6.95;;;6.13;;
52035;SDS011;38046;49.448;32.074;2023-05-19T11:49:32;6.80;;;6.10;;
52035;SDS011;38046;49.448;32.074;2023-05-19T11:52:00;7.40;;;6.00;;
52035;SDS011;38046;49.448;32.074;2023-05-19T11:54:28;6.70;;;6.00;;
52035;SDS011;38046;49.448;32.074;2023-05-19T11:57:00;7.22;;;6.45;;
52035;SDS011;38046;49.448;32.074;2023-05-19T11:59:33;8.65;;;5.90;;
52035;SDS011;38046;49.448;32.074;2023-05-19T12:02:01;7.53;;;5.97;;
52035;SDS011;38046;49.448;32.074;2023-05-19T12:04:38;6.45;;;5.80;;
52035;SDS011;38046;49.448;32.074;2023-05-19T12:07:03;7.28;;;6.03;;
52035;SDS011;38046;49.448;32.074;2023-05-19T12:09:29;9.75;;;5.88;;
52035;SDS011;38046;49.448;32.074;2023-05-19T12:11:55;7.50;;;6.10;;
52035;SDS011;38046;49.448;32.074;2023-05-19T12:14:21;6.63;;;5.57;;
52035;SDS011;38046;49.448;32.074;2023-05-19T12:16:47;7.85;;;6.07;;
52035;SDS011;38046;49.448;32.074;2023-05-19T12:19:12;6.22;;;5.63;;
52035;SDS011;38046;49.448;32.074;2023-05-19T12:21:38;6.90;;;6.18;;
52035;SDS011;38046;49.448;32.074;2023-05-19T12:24:05;8.55;;;6.25;;
52035;SDS011;38046;49.448;32.074;2023-05-19T12:26:31;7.53;;;6.57;;
52035;SDS011;38046;49.448;32.074;2023-05-19T12:28:58;8.90;;;6.53;;
52035;SDS011;38046;49.448;32.074;2023-05-19T12:31:24;10.45;;;6.78;;
52035;SDS011;38046;49.448;32.074;2023-05-19T12:33:50;7.80;;;6.35;;
52035;SDS011;38046;49.448;32.074;2023-05-19T12:36:16;7.60;;;6.25;;
52035;SDS011;38046;49.448;32.074;2023-05-19T12:38:42;7.57;;;6.00;;
52035;SDS011;38046;49.448;32.074;2023-05-19T12:41:12;6.55;;;5.85;;
52035;SDS011;38046;49.448;32.074;2023-05-19T12:43:39;7.57;;;6.03;;
52035;SDS011;38046;49.448;32.074;2023-05-19T12:46:11;6.68;;;6.00;;
52035;SDS011;38046;49.448;32.074;2023-05-19T12:48:44;6.35;;;5.65;;
52035;SDS011;38046;49.448;32.074;2023-05-19T12:51:20;8.57;;;6.57;;
52035;SDS011;38046;49.448;32.074;2023-05-19T12:53:45;7.05;;;5.97;;
52035;SDS011;38046;49.448;32.074;2023-05-19T12:56:13;6.65;;;5.95;;
52035;SDS011;38046;49.448;32.074;2023-05-19T12:58:42;7.10;;;5.88;;
52035;SDS011;38046;49.448;32.074;2023-05-19T13:01:16;6.43;;;5.45;;
52035;SDS011;38046;49.448;32.074;2023-05-19T13:03:42;8.45;;;5.80;;
52035;SDS011;38046;49.448;32.074;2023-05-19T13:06:08;7.57;;;5.85;;
52035;SDS011;38046;49.448;32.074;2023-05-19T13:08:35;7.80;;;5.60;;
52035;SDS011;38046;49.448;32.074;2023-05-19T13:11:01;7.05;;;5.85;;
52035;SDS011;38046;49.448;32.074;2023-05-19T13:13:27;8.05;;;5.68;;
52035;SDS011;38046;49.448;32.074;2023-05-19T13:15:53;8.25;;;5.82;;
52035;SDS011;38046;49.448;32.074;2023-05-19T13:18:18;8.32;;;5.93;;
52035;SDS011;38046;49.448;32.074;2023-05-19T13:20:46;7.00;;;5.70;;
52035;SDS011;38046;49.448;32.074;2023-05-19T13:23:16;6.35;;;5.45;;
52035;SDS011;38046;49.448;32.074;2023-05-19T13:25:43;7.55;;;5.75;;
52035;SDS011;38046;49.448;32.074;2023-05-19T13:28:09;6.82;;;5.75;;
52035;SDS011;38046;49.448;32.074;2023-05-19T13:30:35;6.60;;;4.88;;
52035;SDS011;38046;49.448;32.074;2023-05-19T13:33:02;7.65;;;5.78;;
52035;SDS011;38046;49.448;32.074;2023-05-19T13:35:29;7.57;;;5.47;;
52035;SDS011;38046;49.448;32.074;2023-05-19T13:38:01;6.60;;;5.72;;
52035;SDS011;38046;49.448;32.074;2023-05-19T13:40:36;6.18;;;5.57;;
52035;SDS011;38046;49.448;32.074;2023-05-19T13:43:02;7.05;;;5.43;;
52035;SDS011;38046;49.448;32.074;2023-05-19T13:45:28;7.75;;;5.55;;
52035;SDS011;38046;49.448;32.074;2023-05-19T13:47:54;6.10;;;5.50;;
52035;SDS011;38046;49.448;32.074;2023-05-19T13:50:20;7.10;;;5.30;;
52035;SDS011;38046;49.448;32.074;2023-05-19T13:52:46;7.28;;;5.07;;
52035;SDS011;38046;49.448;32.074;2023-05-19T13:55:12;6.50;;;5.72;;
52035;SDS011;38046;49.448;32.074;2023-05-19T13:57:37;7.70;;;5.78;;
52035;SDS011;38046;49.448;32.074;2023-05-19T14:00:03;5.88;;;5.28;;
52035;SDS011;38046;49.448;32.074;2023-05-19T14:02:30;7.38;;;5.78;;
52035;SDS011;38046;49.448;32.074;2023-05-19T14:04:57;6.07;;;5.45;;
52035;SDS011;38046;49.448;32.074;2023-05-19T14:07:23;6.72;;;5.07;;
52035;SDS011;38046;49.448;32.074;2023-05-19T14:09:49;7.25;;;5.57;;
52035;SDS011;38046;49.448;32.074;2023-05-19T14:12:16;9.30;;;5.78;;
52035;SDS011;38046;49.448;32.074;2023-05-19T14:14:41;5.85;;;5.10;;
52035;SDS011;38046;49.448;32.074;2023-05-19T14:17:07;7.30;;;5.53;;
52035;SDS011;38046;49.448;32.074;2023-05-19T14:19:33;5.78;;;5.18;;
52035;SDS011;38046;49.448;32.074;2023-05-19T14:21:58;8.85;;;5.80;;
52035;SDS011;38046;49.448;32.074;2023-05-19T14:24:24;7.78;;;5.35;;
52035;SDS011;38046;49.448;32.074;2023-05-19T14:26:50;7.60;;;5.70;;
52035;SDS011;38046;49.448;32.074;2023-05-19T14:29:16;6.85;;;5.45;;
52035;SDS011;38046;49.448;32.074;2023-05-19T14:31:42;7.53;;;5.70;;
52035;SDS011;38046;49.448;32.074;2023-05-19T14:34:07;7.90;;;6.80;;
52035;SDS011;38046;49.448;32.074;2023-05-19T14:36:33;7.00;;;5.65;;
52035;SDS011;38046;49.448;32.074;2023-05-19T14:38:59;6.57;;;5.15;;
52035;SDS011;38046;49.448;32.074;2023-05-19T14:41:25;6.60;;;5.90;;
52035;SDS011;38046;49.448;32.074;2023-05-19T14:43:51;6.88;;;6.15;;
52035;SDS011;38046;49.448;32.074;2023-05-19T14:46:17;7.93;;;5.90;;
52035;SDS011;38046;49.448;32.074;2023-05-19T14:48:42;6.80;;;6.00;;
52035;SDS011;38046;49.448;32.074;2023-05-19T14:51:08;9.38;;;6.03;;
52035;SDS011;38046;49.448;32.074;2023-05-19T14:53:34;6.82;;;5.75;;
52035;SDS011;38046;49.448;32.074;2023-05-19T14:55:59;6.15;;;5.55;;